Prairie Grove, Texas
Current Conditions -  °F | °C
As of 11:35 AM on Monday 22 Dec 2014 (Local Time) from KLXY Reporting Station
Clear Clear  
Wind Chill: 65°   Ceiling: Unl
Heat Index: 65°   Visibility: 10mi
Dew Point: 53°   Wind: 20mph
Humidity: 67%   Direction: 210°SSW
Pressure: 29.63"   Gusts: 25mph
Location:  31.6887°N, 96.511°W
Report Text: KLXY 221735Z AUTO 21017G22KT 10SM CLR 18/12 A2963 RMK AO2 T01810118
Loading
Personal Weather Stations






























Interactive Weather Map New forecast layout! Learn more

10-Day Weather Forecast

Advertisements
Track Severe Weather on mobile